sensor_id;sensor_type;location;lat;lon;timestamp;temperature;humidity
32977;DHT22;47687;50.842;4.450;2022-10-16T00:00:36;13.70;99.90
32977;DHT22;47687;50.842;4.450;2022-10-16T00:03:03;13.70;99.90
32977;DHT22;47687;50.842;4.450;2022-10-16T00:05:29;13.70;99.90
32977;DHT22;47687;50.842;4.450;2022-10-16T00:07:55;13.70;99.90
32977;DHT22;47687;50.842;4.450;2022-10-16T00:10:21;13.70;99.90
32977;DHT22;47687;50.842;4.450;2022-10-16T00:12:46;13.80;99.90
32977;DHT22;47687;50.842;4.450;2022-10-16T00:15:12;13.70;99.90
32977;DHT22;47687;50.842;4.450;2022-10-16T00:17:38;13.80;99.90
32977;DHT22;47687;50.842;4.450;2022-10-16T00:20:04;13.80;99.90
32977;DHT22;47687;50.842;4.450;2022-10-16T00:22:30;13.70;99.90
32977;DHT22;47687;50.842;4.450;2022-10-16T00:24:56;13.70;99.90
32977;DHT22;47687;50.842;4.450;2022-10-16T00:27:22;13.70;99.90
32977;DHT22;47687;50.842;4.450;2022-10-16T00:29:52;13.70;99.90
32977;DHT22;47687;50.842;4.450;2022-10-16T00:32:19;13.70;99.90
32977;DHT22;47687;50.842;4.450;2022-10-16T00:34:45;13.60;99.90
32977;DHT22;47687;50.842;4.450;2022-10-16T00:37:11;13.60;99.90
32977;DHT22;47687;50.842;4.450;2022-10-16T00:39:36;13.60;99.90
32977;DHT22;47687;50.842;4.450;2022-10-16T00:42:02;13.60;99.90
32977;DHT22;47687;50.842;4.450;2022-10-16T00:44:50;13.60;99.90
32977;DHT22;47687;50.842;4.450;2022-10-16T00:47:30;13.60;99.90
32977;DHT22;47687;50.842;4.450;2022-10-16T00:50:20;13.50;99.90
32977;DHT22;47687;50.842;4.450;2022-10-16T00:52:48;13.50;99.90
32977;DHT22;47687;50.842;4.450;2022-10-16T00:55:15;13.50;99.90
32977;DHT22;47687;50.842;4.450;2022-10-16T00:57:42;13.50;99.90
32977;DHT22;47687;50.842;4.450;2022-10-16T01:00:09;13.40;99.90
32977;DHT22;47687;50.842;4.450;2022-10-16T01:02:35;13.40;99.90
32977;DHT22;47687;50.842;4.450;2022-10-16T01:05:02;13.40;99.90
32977;DHT22;47687;50.842;4.450;2022-10-16T01:10:36;13.40;99.90
32977;DHT22;47687;50.842;4.450;2022-10-16T01:13:09;13.40;99.90
32977;DHT22;47687;50.842;4.450;2022-10-16T01:15:41;13.40;99.90
32977;DHT22;47687;50.842;4.450;2022-10-16T01:18:14;13.40;99.90
32977;DHT22;47687;50.842;4.450;2022-10-16T01:20:58;13.40;99.90
32977;DHT22;47687;50.842;4.450;2022-10-16T01:28:57;13.40;99.90
32977;DHT22;47687;50.842;4.450;2022-10-16T01:31:29;13.50;99.90
32977;DHT22;47687;50.842;4.450;2022-10-16T01:34:05;13.40;99.90
32977;DHT22;47687;50.842;4.450;2022-10-16T01:36:38;13.40;99.90
32977;DHT22;47687;50.842;4.450;2022-10-16T01:39:07;13.40;99.90
32977;DHT22;47687;50.842;4.450;2022-10-16T01:41:39;13.40;99.90
32977;DHT22;47687;50.842;4.450;2022-10-16T01:44:13;13.50;99.90
32977;DHT22;47687;50.842;4.450;2022-10-16T01:46:41;13.40;99.90
32977;DHT22;47687;50.842;4.450;2022-10-16T01:49:09;13.40;99.90
32977;DHT22;47687;50.842;4.450;2022-10-16T01:51:37;13.30;99.90
32977;DHT22;47687;50.842;4.450;2022-10-16T01:54:05;13.40;99.90
32977;DHT22;47687;50.842;4.450;2022-10-16T01:56:33;13.40;99.90
32977;DHT22;47687;50.842;4.450;2022-10-16T01:59:06;13.30;99.90
32977;DHT22;47687;50.842;4.450;2022-10-16T02:01:35;13.40;99.90
32977;DHT22;47687;50.842;4.450;2022-10-16T02:04:17;13.40;99.90
32977;DHT22;47687;50.842;4.450;2022-10-16T02:06:44;13.40;99.90
32977;DHT22;47687;50.842;4.450;2022-10-16T02:09:10;13.40;99.90
32977;DHT22;47687;50.842;4.450;2022-10-16T02:11:36;13.40;99.90
32977;DHT22;47687;50.842;4.450;2022-10-16T02:14:05;13.40;99.90
32977;DHT22;47687;50.842;4.450;2022-10-16T02:16:37;13.40;99.90
32977;DHT22;47687;50.842;4.450;2022-10-16T02:19:04;13.40;99.90
32977;DHT22;47687;50.842;4.450;2022-10-16T02:21:44;13.40;99.90
32977;DHT22;47687;50.842;4.450;2022-10-16T02:26:56;13.40;99.90
32977;DHT22;47687;50.842;4.450;2022-10-16T02:29:25;13.40;99.90
32977;DHT22;47687;50.842;4.450;2022-10-16T02:31:55;13.40;99.90
32977;DHT22;47687;50.842;4.450;2022-10-16T02:34:24;13.40;99.90
32977;DHT22;47687;50.842;4.450;2022-10-16T02:36:51;13.40;99.90
32977;DHT22;47687;50.842;4.450;2022-10-16T02:39:18;13.40;99.90
32977;DHT22;47687;50.842;4.450;2022-10-16T02:41:45;13.40;99.90
32977;DHT22;47687;50.842;4.450;2022-10-16T02:44:10;13.40;99.90
32977;DHT22;47687;50.842;4.450;2022-10-16T02:46:36;13.40;99.90
32977;DHT22;47687;50.842;4.450;2022-10-16T02:49:02;13.40;99.90
32977;DHT22;47687;50.842;4.450;2022-10-16T02:51:27;13.30;99.90
32977;DHT22;47687;50.842;4.450;2022-10-16T02:53:53;13.30;99.90
32977;DHT22;47687;50.842;4.450;2022-10-16T02:56:18;13.30;99.90
32977;DHT22;47687;50.842;4.450;2022-10-16T02:58:44;13.30;99.90
32977;DHT22;47687;50.842;4.450;2022-10-16T03:01:09;13.30;99.90
32977;DHT22;47687;50.842;4.450;2022-10-16T03:03:37;13.40;99.90
32977;DHT22;47687;50.842;4.450;2022-10-16T03:06:03;13.40;99.90
32977;DHT22;47687;50.842;4.450;2022-10-16T03:08:28;13.40;99.90
32977;DHT22;47687;50.842;4.450;2022-10-16T03:10:54;13.40;99.90
32977;DHT22;47687;50.842;4.450;2022-10-16T03:13:20;13.30;99.90
32977;DHT22;47687;50.842;4.450;2022-10-16T03:15:46;13.40;99.90
32977;DHT22;47687;50.842;4.450;2022-10-16T03:18:11;13.40;99.90
32977;DHT22;47687;50.842;4.450;2022-10-16T03:20:37;13.50;99.90
32977;DHT22;47687;50.842;4.450;2022-10-16T03:23:03;13.50;99.90
32977;DHT22;47687;50.842;4.450;2022-10-16T03:25:28;13.50;99.90
32977;DHT22;47687;50.842;4.450;2022-10-16T03:27:54;13.50;99.90
32977;DHT22;47687;50.842;4.450;2022-10-16T03:30:19;13.40;99.90
32977;DHT22;47687;50.842;4.450;2022-10-16T03:32:46;13.40;99.90
32977;DHT22;47687;50.842;4.450;2022-10-16T03:35:12;13.30;99.90
32977;DHT22;47687;50.842;4.450;2022-10-16T03:37:38;13.40;99.90
32977;DHT22;47687;50.842;4.450;2022-10-16T03:40:04;13.30;99.90
32977;DHT22;47687;50.842;4.450;2022-10-16T03:42:30;13.30;99.90
32977;DHT22;47687;50.842;4.450;2022-10-16T03:44:55;13.40;99.90
32977;DHT22;47687;50.842;4.450;2022-10-16T03:47:21;13.40;99.90
32977;DHT22;47687;50.842;4.450;2022-10-16T03:49:49;13.40;99.90
32977;DHT22;47687;50.842;4.450;2022-10-16T03:52:14;13.40;99.90
32977;DHT22;47687;50.842;4.450;2022-10-16T03:54:40;13.40;99.90
32977;DHT22;47687;50.842;4.450;2022-10-16T03:57:05;13.40;99.90
32977;DHT22;47687;50.842;4.450;2022-10-16T03:59:31;13.40;99.90
32977;DHT22;47687;50.842;4.450;2022-10-16T04:01:57;13.40;99.90
32977;DHT22;47687;50.842;4.450;2022-10-16T04:04:22;13.40;99.90
32977;DHT22;47687;50.842;4.450;2022-10-16T04:06:48;13.40;99.90
32977;DHT22;47687;50.842;4.450;2022-10-16T04:09:13;13.40;99.90
32977;DHT22;47687;50.842;4.450;2022-10-16T04:11:39;13.40;99.90
32977;DHT22;47687;50.842;4.450;2022-10-16T04:14:04;13.40;99.90
32977;DHT22;47687;50.842;4.450;2022-10-16T04:16:30;13.30;99.90
32977;DHT22;47687;50.842;4.450;2022-10-16T04:18:55;13.40;99.90
32977;DHT22;47687;50.842;4.450;2022-10-16T04:21:21;13.30;99.90
32977;DHT22;47687;50.842;4.450;2022-10-16T04:23:47;13.30;99.90
32977;DHT22;47687;50.842;4.450;2022-10-16T04:26:13;13.40;99.90
32977;DHT22;47687;50.842;4.450;2022-10-16T04:28:39;13.40;99.90
32977;DHT22;47687;50.842;4.450;2022-10-16T04:31:05;13.30;99.90
32977;DHT22;47687;50.842;4.450;2022-10-16T04:33:31;13.30;99.90
32977;DHT22;47687;50.842;4.450;2022-10-16T04:35:58;13.30;99.90
32977;DHT22;47687;50.842;4.450;2022-10-16T04:38:23;13.20;99.90
32977;DHT22;47687;50.842;4.450;2022-10-16T04:40:49;13.20;99.90
32977;DHT22;47687;50.842;4.450;2022-10-16T04:43:14;13.20;99.90
32977;DHT22;47687;50.842;4.450;2022-10-16T04:45:40;13.10;99.90
32977;DHT22;47687;50.842;4.450;2022-10-16T04:48:06;13.20;99.90
32977;DHT22;47687;50.842;4.450;2022-10-16T04:50:31;13.20;99.90
32977;DHT22;47687;50.842;4.450;2022-10-16T04:52:57;13.10;99.90
32977;DHT22;47687;50.842;4.450;2022-10-16T04:55:22;13.10;99.90
32977;DHT22;47687;50.842;4.450;2022-10-16T04:57:48;13.10;99.90
32977;DHT22;47687;50.842;4.450;2022-10-16T05:00:13;13.10;99.90
32977;DHT22;47687;50.842;4.450;2022-10-16T05:02:39;13.20;99.90
32977;DHT22;47687;50.842;4.450;2022-10-16T05:05:05;13.10;99.90
32977;DHT22;47687;50.842;4.450;2022-10-16T05:07:31;13.10;99.90
32977;DHT22;47687;50.842;4.450;2022-10-16T05:09:56;13.10;99.90
32977;DHT22;47687;50.842;4.450;2022-10-16T05:12:22;13.10;99.90
32977;DHT22;47687;50.842;4.450;2022-10-16T05:14:47;13.10;99.90
32977;DHT22;47687;50.842;4.450;2022-10-16T05:17:13;13.10;99.90
32977;DHT22;47687;50.842;4.450;2022-10-16T05:19:38;13.00;99.90
32977;DHT22;47687;50.842;4.450;2022-10-16T05:22:04;13.00;99.90
32977;DHT22;47687;50.842;4.450;2022-10-16T05:24:29;13.00;99.90
32977;DHT22;47687;50.842;4.450;2022-10-16T05:26:55;13.00;99.90
32977;DHT22;47687;50.842;4.450;2022-10-16T05:29:21;13.00;99.90
32977;DHT22;47687;50.842;4.450;2022-10-16T05:31:49;12.90;99.90
32977;DHT22;47687;50.842;4.450;2022-10-16T05:34:14;12.80;99.90
32977;DHT22;47687;50.842;4.450;2022-10-16T05:36:40;12.80;99.90
32977;DHT22;47687;50.842;4.450;2022-10-16T05:39:05;12.80;99.90
32977;DHT22;47687;50.842;4.450;2022-10-16T05:41:31;12.80;99.90
32977;DHT22;47687;50.842;4.450;2022-10-16T05:43:57;12.70;99.90
32977;DHT22;47687;50.842;4.450;2022-10-16T05:46:22;12.70;99.90
32977;DHT22;47687;50.842;4.450;2022-10-16T05:48:48;12.60;99.90
32977;DHT22;47687;50.842;4.450;2022-10-16T05:51:14;12.60;99.90
32977;DHT22;47687;50.842;4.450;2022-10-16T05:53:41;12.60;99.90
32977;DHT22;47687;50.842;4.450;2022-10-16T05:56:08;12.60;99.90
32977;DHT22;47687;50.842;4.450;2022-10-16T05:58:35;12.60;99.90
32977;DHT22;47687;50.842;4.450;2022-10-16T06:01:06;12.60;99.90
32977;DHT22;47687;50.842;4.450;2022-10-16T06:03:33;12.60;99.90
32977;DHT22;47687;50.842;4.450;2022-10-16T06:05:59;12.60;99.90
32977;DHT22;47687;50.842;4.450;2022-10-16T06:08:32;12.60;99.90
32977;DHT22;47687;50.842;4.450;2022-10-16T06:11:05;12.60;99.90
32977;DHT22;47687;50.842;4.450;2022-10-16T06:13:31;12.60;99.90
32977;DHT22;47687;50.842;4.450;2022-10-16T06:15:58;12.50;99.90
32977;DHT22;47687;50.842;4.450;2022-10-16T06:18:24;12.60;99.90
32977;DHT22;47687;50.842;4.450;2022-10-16T06:20:49;12.60;99.90
32977;DHT22;47687;50.842;4.450;2022-10-16T06:23:15;12.70;99.90
32977;DHT22;47687;50.842;4.450;2022-10-16T06:25:40;12.70;99.90
32977;DHT22;47687;50.842;4.450;2022-10-16T06:28:06;12.70;99.90
32977;DHT22;47687;50.842;4.450;2022-10-16T06:30:31;12.60;99.90
32977;DHT22;47687;50.842;4.450;2022-10-16T06:32:57;12.60;99.90
32977;DHT22;47687;50.842;4.450;2022-10-16T06:35:22;12.70;99.90
32977;DHT22;47687;50.842;4.450;2022-10-16T06:37:49;12.70;99.90
32977;DHT22;47687;50.842;4.450;2022-10-16T06:40:14;12.70;99.90
32977;DHT22;47687;50.842;4.450;2022-10-16T06:42:41;12.80;99.90
32977;DHT22;47687;50.842;4.450;2022-10-16T06:45:07;12.80;99.90
32977;DHT22;47687;50.842;4.450;2022-10-16T06:47:32;12.90;99.90
32977;DHT22;47687;50.842;4.450;2022-10-16T06:49:58;13.00;99.90
32977;DHT22;47687;50.842;4.450;2022-10-16T06:52:24;13.10;99.90
32977;DHT22;47687;50.842;4.450;2022-10-16T06:54:49;13.20;99.90
32977;DHT22;47687;50.842;4.450;2022-10-16T06:57:15;13.30;99.90
32977;DHT22;47687;50.842;4.450;2022-10-16T06:59:41;13.40;99.90
32977;DHT22;47687;50.842;4.450;2022-10-16T07:02:08;13.50;99.90
32977;DHT22;47687;50.842;4.450;2022-10-16T07:04:36;13.60;99.90
32977;DHT22;47687;50.842;4.450;2022-10-16T07:07:01;13.60;99.90
32977;DHT22;47687;50.842;4.450;2022-10-16T07:09:27;13.70;99.90
32977;DHT22;47687;50.842;4.450;2022-10-16T07:11:53;13.60;99.90
32977;DHT22;47687;50.842;4.450;2022-10-16T07:14:20;13.60;99.90
32977;DHT22;47687;50.842;4.450;2022-10-16T07:16:47;13.60;99.90
32977;DHT22;47687;50.842;4.450;2022-10-16T07:19:13;13.60;99.90
32977;DHT22;47687;50.842;4.450;2022-10-16T07:21:41;13.60;99.90
32977;DHT22;47687;50.842;4.450;2022-10-16T07:24:12;13.60;99.90
32977;DHT22;47687;50.842;4.450;2022-10-16T07:26:38;13.70;99.90
32977;DHT22;47687;50.842;4.450;2022-10-16T07:29:06;13.70;99.90
32977;DHT22;47687;50.842;4.450;2022-10-16T07:31:32;13.70;99.90
32977;DHT22;47687;50.842;4.450;2022-10-16T07:33:59;13.80;99.90
32977;DHT22;47687;50.842;4.450;2022-10-16T07:36:25;13.70;99.90
32977;DHT22;47687;50.842;4.450;2022-10-16T07:38:50;13.80;99.90
32977;DHT22;47687;50.842;4.450;2022-10-16T07:41:18;13.90;99.90
32977;DHT22;47687;50.842;4.450;2022-10-16T07:43:48;13.90;99.90
32977;DHT22;47687;50.842;4.450;2022-10-16T07:46:15;14.00;99.90
32977;DHT22;47687;50.842;4.450;2022-10-16T07:48:42;14.00;99.90
32977;DHT22;47687;50.842;4.450;2022-10-16T07:51:12;14.00;99.90
32977;DHT22;47687;50.842;4.450;2022-10-16T07:53:38;14.10;99.90
32977;DHT22;47687;50.842;4.450;2022-10-16T07:56:06;14.10;99.90
32977;DHT22;47687;50.842;4.450;2022-10-16T07:58:33;14.20;99.90
32977;DHT22;47687;50.842;4.450;2022-10-16T08:00:59;14.20;99.90
32977;DHT22;47687;50.842;4.450;2022-10-16T08:03:27;14.30;99.90
32977;DHT22;47687;50.842;4.450;2022-10-16T08:05:53;14.30;99.90
32977;DHT22;47687;50.842;4.450;2022-10-16T08:08:19;14.40;99.90
32977;DHT22;47687;50.842;4.450;2022-10-16T08:10:44;14.50;99.90
32977;DHT22;47687;50.842;4.450;2022-10-16T08:13:10;14.60;99.90
32977;DHT22;47687;50.842;4.450;2022-10-16T08:15:36;14.70;99.90
32977;DHT22;47687;50.842;4.450;2022-10-16T08:18:03;14.60;99.90
32977;DHT22;47687;50.842;4.450;2022-10-16T08:20:31;14.70;99.90
32977;DHT22;47687;50.842;4.450;2022-10-16T08:22:57;14.90;99.90
32977;DHT22;47687;50.842;4.450;2022-10-16T08:25:25;14.90;99.90
32977;DHT22;47687;50.842;4.450;2022-10-16T08:27:51;14.90;99.90
32977;DHT22;47687;50.842;4.450;2022-10-16T08:30:22;15.00;99.90
32977;DHT22;47687;50.842;4.450;2022-10-16T08:32:48;15.10;99.90
32977;DHT22;47687;50.842;4.450;2022-10-16T08:35:14;15.10;99.90
32977;DHT22;47687;50.842;4.450;2022-10-16T08:37:40;15.10;99.90
32977;DHT22;47687;50.842;4.450;2022-10-16T08:40:07;15.20;99.90
32977;DHT22;47687;50.842;4.450;2022-10-16T08:42:46;15.30;99.90
32977;DHT22;47687;50.842;4.450;2022-10-16T08:48:08;15.40;99.90
32977;DHT22;47687;50.842;4.450;2022-10-16T08:50:39;15.50;99.90
32977;DHT22;47687;50.842;4.450;2022-10-16T08:53:06;15.60;99.90
32977;DHT22;47687;50.842;4.450;2022-10-16T08:55:43;15.60;99.90
32977;DHT22;47687;50.842;4.450;2022-10-16T08:58:16;15.60;99.90
32977;DHT22;47687;50.842;4.450;2022-10-16T09:00:43;15.70;99.90
32977;DHT22;47687;50.842;4.450;2022-10-16T09:06:40;15.90;99.90
32977;DHT22;47687;50.842;4.450;2022-10-16T09:12:04;16.00;99.90
32977;DHT22;47687;50.842;4.450;2022-10-16T09:14:47;16.00;99.90
32977;DHT22;47687;50.842;4.450;2022-10-16T09:20:12;16.20;99.90
32977;DHT22;47687;50.842;4.450;2022-10-16T09:22:41;16.30;99.90
32977;DHT22;47687;50.842;4.450;2022-10-16T09:25:14;16.30;99.90
32977;DHT22;47687;50.842;4.450;2022-10-16T09:27:40;16.40;99.90
32977;DHT22;47687;50.842;4.450;2022-10-16T09:30:18;16.40;99.90
32977;DHT22;47687;50.842;4.450;2022-10-16T09:32:46;16.50;99.90
32977;DHT22;47687;50.842;4.450;2022-10-16T09:35:22;16.40;99.90
32977;DHT22;47687;50.842;4.450;2022-10-16T09:37:54;16.50;99.90
32977;DHT22;47687;50.842;4.450;2022-10-16T09:40:26;16.50;99.90
32977;DHT22;47687;50.842;4.450;2022-10-16T09:43:01;16.50;99.90
32977;DHT22;47687;50.842;4.450;2022-10-16T09:45:28;16.60;99.90
32977;DHT22;47687;50.842;4.450;2022-10-16T09:47:53;16.50;99.90
32977;DHT22;47687;50.842;4.450;2022-10-16T09:50:26;16.60;99.90
32977;DHT22;47687;50.842;4.450;2022-10-16T09:53:12;16.80;99.90
32977;DHT22;47687;50.842;4.450;2022-10-16T09:55:51;16.90;99.90
32977;DHT22;47687;50.842;4.450;2022-10-16T09:58:17;16.80;99.90
32977;DHT22;47687;50.842;4.450;2022-10-16T10:00:53;17.00;99.90
32977;DHT22;47687;50.842;4.450;2022-10-16T10:03:34;17.00;99.90
32977;DHT22;47687;50.842;4.450;2022-10-16T10:06:17;16.80;99.90
32977;DHT22;47687;50.842;4.450;2022-10-16T10:11:47;17.10;99.90
32977;DHT22;47687;50.842;4.450;2022-10-16T10:14:15;17.10;99.90
32977;DHT22;47687;50.842;4.450;2022-10-16T10:16:42;17.10;99.90
32977;DHT22;47687;50.842;4.450;2022-10-16T10:19:22;17.20;99.90
32977;DHT22;47687;50.842;4.450;2022-10-16T10:21:50;17.30;99.90
32977;DHT22;47687;50.842;4.450;2022-10-16T10:24:18;17.40;99.90
32977;DHT22;47687;50.842;4.450;2022-10-16T10:27:06;17.40;99.90
32977;DHT22;47687;50.842;4.450;2022-10-16T10:29:44;17.40;99.90
32977;DHT22;47687;50.842;4.450;2022-10-16T10:32:30;17.40;99.90
32977;DHT22;47687;50.842;4.450;2022-10-16T10:35:07;17.40;99.90
32977;DHT22;47687;50.842;4.450;2022-10-16T10:40:52;17.60;99.90
32977;DHT22;47687;50.842;4.450;2022-10-16T10:46:29;17.70;99.90
32977;DHT22;47687;50.842;4.450;2022-10-16T11:09:27;18.90;99.90
32977;DHT22;47687;50.842;4.450;2022-10-16T11:12:00;19.00;99.90
32977;DHT22;47687;50.842;4.450;2022-10-16T11:14:46;19.00;99.90
32977;DHT22;47687;50.842;4.450;2022-10-16T11:17:26;19.00;99.90
32977;DHT22;47687;50.842;4.450;2022-10-16T11:19:58;19.10;99.90
32977;DHT22;47687;50.842;4.450;2022-10-16T11:22:39;19.20;99.90
32977;DHT22;47687;50.842;4.450;2022-10-16T11:25:26;19.20;99.90
32977;DHT22;47687;50.842;4.450;2022-10-16T11:31:07;19.50;99.90
32977;DHT22;47687;50.842;4.450;2022-10-16T11:57:38;19.50;99.90
32977;DHT22;47687;50.842;4.450;2022-10-16T12:00:24;19.40;99.90
32977;DHT22;47687;50.842;4.450;2022-10-16T12:06:14;19.80;99.90
32977;DHT22;47687;50.842;4.450;2022-10-16T12:09:05;20.30;99.90
32977;DHT22;47687;50.842;4.450;2022-10-16T12:11:43;20.70;99.90
32977;DHT22;47687;50.842;4.450;2022-10-16T12:17:23;21.20;99.90
32977;DHT22;47687;50.842;4.450;2022-10-16T12:20:32;21.30;99.90
32977;DHT22;47687;50.842;4.450;2022-10-16T12:23:04;21.50;99.90
32977;DHT22;47687;50.842;4.450;2022-10-16T12:25:39;21.40;99.90
32977;DHT22;47687;50.842;4.450;2022-10-16T12:30:42;21.10;99.90
32977;DHT22;47687;50.842;4.450;2022-10-16T12:33:30;21.20;99.90
32977;DHT22;47687;50.842;4.450;2022-10-16T12:35:58;21.30;99.90
32977;DHT22;47687;50.842;4.450;2022-10-16T12:38:52;21.40;99.90
32977;DHT22;47687;50.842;4.450;2022-10-16T12:41:29;21.40;99.90
32977;DHT22;47687;50.842;4.450;2022-10-16T12:43:55;21.70;99.90
32977;DHT22;47687;50.842;4.450;2022-10-16T12:46:38;21.90;99.90
32977;DHT22;47687;50.842;4.450;2022-10-16T12:51:40;22.20;99.90
32977;DHT22;47687;50.842;4.450;2022-10-16T12:54:18;22.30;99.90
32977;DHT22;47687;50.842;4.450;2022-10-16T13:08:20;22.50;99.90
32977;DHT22;47687;50.842;4.450;2022-10-16T13:18:54;22.50;99.90
32977;DHT22;47687;50.842;4.450;2022-10-16T13:21:49;22.70;99.90
32977;DHT22;47687;50.842;4.450;2022-10-16T13:27:43;23.00;99.90
32977;DHT22;47687;50.842;4.450;2022-10-16T13:30:27;22.90;99.90
32977;DHT22;47687;50.842;4.450;2022-10-16T13:33:41;22.90;99.90
32977;DHT22;47687;50.842;4.450;2022-10-16T13:36:49;22.80;99.90
32977;DHT22;47687;50.842;4.450;2022-10-16T13:39:24;22.60;99.90
32977;DHT22;47687;50.842;4.450;2022-10-16T13:44:34;23.00;99.90
32977;DHT22;47687;50.842;4.450;2022-10-16T13:49:44;23.20;99.90
32977;DHT22;47687;50.842;4.450;2022-10-16T13:52:21;23.00;99.90
32977;DHT22;47687;50.842;4.450;2022-10-16T13:54:47;22.80;99.90
32977;DHT22;47687;50.842;4.450;2022-10-16T13:57:17;22.60;99.90
32977;DHT22;47687;50.842;4.450;2022-10-16T13:59:43;22.60;99.90
32977;DHT22;47687;50.842;4.450;2022-10-16T14:04:41;22.50;99.90
32977;DHT22;47687;50.842;4.450;2022-10-16T14:07:14;22.60;99.90
32977;DHT22;47687;50.842;4.450;2022-10-16T14:09:41;22.60;99.90
32977;DHT22;47687;50.842;4.450;2022-10-16T14:12:13;22.50;99.90
32977;DHT22;47687;50.842;4.450;2022-10-16T14:14:48;22.50;99.90
32977;DHT22;47687;50.842;4.450;2022-10-16T14:17:26;22.30;99.90
32977;DHT22;47687;50.842;4.450;2022-10-16T14:19:59;22.30;99.90
32977;DHT22;47687;50.842;4.450;2022-10-16T14:22:36;22.20;99.90
32977;DHT22;47687;50.842;4.450;2022-10-16T14:25:34;22.20;99.90
32977;DHT22;47687;50.842;4.450;2022-10-16T14:28:04;22.20;99.90
32977;DHT22;47687;50.842;4.450;2022-10-16T14:30:33;22.20;99.90
32977;DHT22;47687;50.842;4.450;2022-10-16T14:33:18;22.20;99.90
32977;DHT22;47687;50.842;4.450;2022-10-16T14:38:25;22.10;99.90
32977;DHT22;47687;50.842;4.450;2022-10-16T14:40:51;22.20;99.90
32977;DHT22;47687;50.842;4.450;2022-10-16T14:43:22;22.00;99.90
32977;DHT22;47687;50.842;4.450;2022-10-16T14:45:56;22.00;99.90
32977;DHT22;47687;50.842;4.450;2022-10-16T14:48:22;21.90;99.90
32977;DHT22;47687;50.842;4.450;2022-10-16T14:50:49;21.90;99.90
32977;DHT22;47687;50.842;4.450;2022-10-16T14:53:15;21.90;99.90
32977;DHT22;47687;50.842;4.450;2022-10-16T14:55:41;21.80;99.90
32977;DHT22;47687;50.842;4.450;2022-10-16T14:58:16;21.80;99.90
32977;DHT22;47687;50.842;4.450;2022-10-16T15:00:42;21.70;99.90
32977;DHT22;47687;50.842;4.450;2022-10-16T15:03:08;21.70;99.90
32977;DHT22;47687;50.842;4.450;2022-10-16T15:05:33;21.60;99.90
32977;DHT22;47687;50.842;4.450;2022-10-16T15:07:59;21.50;99.90
32977;DHT22;47687;50.842;4.450;2022-10-16T15:10:27;21.50;99.90
32977;DHT22;47687;50.842;4.450;2022-10-16T15:12:54;21.40;99.90
32977;DHT22;47687;50.842;4.450;2022-10-16T15:17:53;21.40;99.90
32977;DHT22;47687;50.842;4.450;2022-10-16T15:20:22;21.30;99.90
32977;DHT22;47687;50.842;4.450;2022-10-16T15:22:47;21.30;99.90
32977;DHT22;47687;50.842;4.450;2022-10-16T15:27:49;21.10;99.90
32977;DHT22;47687;50.842;4.450;2022-10-16T15:30:14;21.10;99.90
32977;DHT22;47687;50.842;4.450;2022-10-16T15:32:40;21.00;99.90
32977;DHT22;47687;50.842;4.450;2022-10-16T15:35:08;20.90;99.90
32977;DHT22;47687;50.842;4.450;2022-10-16T15:37:34;20.70;99.90
32977;DHT22;47687;50.842;4.450;2022-10-16T15:40:00;20.60;99.90
32977;DHT22;47687;50.842;4.450;2022-10-16T15:42:25;20.60;99.90
32977;DHT22;47687;50.842;4.450;2022-10-16T15:44:51;20.40;99.90
32977;DHT22;47687;50.842;4.450;2022-10-16T15:47:16;20.20;99.90
32977;DHT22;47687;50.842;4.450;2022-10-16T15:49:42;20.20;99.90
32977;DHT22;47687;50.842;4.450;2022-10-16T15:52:07;20.10;99.90
32977;DHT22;47687;50.842;4.450;2022-10-16T15:54:33;20.00;99.90
32977;DHT22;47687;50.842;4.450;2022-10-16T15:56:58;19.90;99.90
32977;DHT22;47687;50.842;4.450;2022-10-16T15:59:24;19.80;99.90
32977;DHT22;47687;50.842;4.450;2022-10-16T16:01:50;19.70;99.90
32977;DHT22;47687;50.842;4.450;2022-10-16T16:04:15;19.70;99.90
32977;DHT22;47687;50.842;4.450;2022-10-16T16:06:42;19.60;99.90
32977;DHT22;47687;50.842;4.450;2022-10-16T16:09:10;19.60;99.90
32977;DHT22;47687;50.842;4.450;2022-10-16T16:11:36;19.50;99.90
32977;DHT22;47687;50.842;4.450;2022-10-16T16:14:06;19.50;99.90
32977;DHT22;47687;50.842;4.450;2022-10-16T16:16:33;19.40;99.90
32977;DHT22;47687;50.842;4.450;2022-10-16T16:19:06;19.30;99.90
32977;DHT22;47687;50.842;4.450;2022-10-16T16:21:33;19.20;99.90
32977;DHT22;47687;50.842;4.450;2022-10-16T16:23:59;19.20;99.90
32977;DHT22;47687;50.842;4.450;2022-10-16T16:26:27;19.10;99.90
32977;DHT22;47687;50.842;4.450;2022-10-16T16:28:58;19.00;99.90
32977;DHT22;47687;50.842;4.450;2022-10-16T16:31:25;19.00;99.90
32977;DHT22;47687;50.842;4.450;2022-10-16T16:33:51;19.00;99.90
32977;DHT22;47687;50.842;4.450;2022-10-16T16:36:17;18.90;99.90
32977;DHT22;47687;50.842;4.450;2022-10-16T16:38:46;18.90;99.90
32977;DHT22;47687;50.842;4.450;2022-10-16T16:41:20;18.80;99.90
32977;DHT22;47687;50.842;4.450;2022-10-16T16:43:46;18.70;99.90
32977;DHT22;47687;50.842;4.450;2022-10-16T16:46:13;18.70;99.90
32977;DHT22;47687;50.842;4.450;2022-10-16T16:48:39;18.70;99.90
32977;DHT22;47687;50.842;4.450;2022-10-16T16:51:11;18.60;99.90
32977;DHT22;47687;50.842;4.450;2022-10-16T16:53:42;18.40;99.90
32977;DHT22;47687;50.842;4.450;2022-10-16T16:56:08;18.50;99.90
32977;DHT22;47687;50.842;4.450;2022-10-16T16:58:34;18.40;99.90
32977;DHT22;47687;50.842;4.450;2022-10-16T17:01:00;18.40;99.90
32977;DHT22;47687;50.842;4.450;2022-10-16T17:03:34;18.40;99.90
32977;DHT22;47687;50.842;4.450;2022-10-16T17:06:02;18.30;99.90
32977;DHT22;47687;50.842;4.450;2022-10-16T17:08:28;18.30;99.90
32977;DHT22;47687;50.842;4.450;2022-10-16T17:10:55;18.40;99.90
32977;DHT22;47687;50.842;4.450;2022-10-16T17:13:28;18.40;99.90
32977;DHT22;47687;50.842;4.450;2022-10-16T17:15:54;18.40;99.90
32977;DHT22;47687;50.842;4.450;2022-10-16T17:18:22;18.20;99.90
32977;DHT22;47687;50.842;4.450;2022-10-16T17:20:48;18.00;99.90
32977;DHT22;47687;50.842;4.450;2022-10-16T17:23:15;18.00;99.90
32977;DHT22;47687;50.842;4.450;2022-10-16T17:25:41;17.90;99.90
32977;DHT22;47687;50.842;4.450;2022-10-16T17:28:09;17.80;99.90
32977;DHT22;47687;50.842;4.450;2022-10-16T17:30:38;17.60;99.90
32977;DHT22;47687;50.842;4.450;2022-10-16T17:33:05;17.60;99.90
32977;DHT22;47687;50.842;4.450;2022-10-16T17:35:43;17.60;99.90
32977;DHT22;47687;50.842;4.450;2022-10-16T17:38:10;17.50;99.90
32977;DHT22;47687;50.842;4.450;2022-10-16T17:40:37;17.50;99.90
32977;DHT22;47687;50.842;4.450;2022-10-16T17:43:03;17.40;99.90
32977;DHT22;47687;50.842;4.450;2022-10-16T17:45:29;17.30;99.90
32977;DHT22;47687;50.842;4.450;2022-10-16T17:47:54;17.30;99.90
32977;DHT22;47687;50.842;4.450;2022-10-16T17:50:20;17.20;99.90
32977;DHT22;47687;50.842;4.450;2022-10-16T17:52:46;17.20;99.90